Карточка аэропорта UMKK

Внимание!
Информация на этой странице в стадии наполнения.
Если вы не увидели какой-то информации, или заметили неточность - пожалуйста сообщите нам!
Спасибо!
Команда RU-STAFF
Название аэропортаХраброво
Название аэропорта (англ.)Khrabrovo
Превышение43 ft. (13.1 m.)
Координаты54°53.4', 20°35.55'
Высота перехода4000ft
Эшелон переходаFL50 (QNH>=1013hPa); FL60 (QNH<1013hPa); FL50 (QNH<977hPa);
Коды ответчика6620-6637
Зона ОрВДКалининград РПИ (UMKK)
Данные METARUMKK 270930Z 06004MPS 2200 1200S RA BR BKN001 OVC015 07/07 Q1014 R24/290095 NOSIG RMK QBB050 OBST OBSC QFE759/1012
Проноз погоды (TAF)UMKK 270459Z 2706/2806 01003G09MPS 0300 FG BKN002 TEMPO 2706/2709 1200 -RA BR OVC001 BECMG 2709/2711 1200 -RA BR BKN003 TEMPO 2711/2715 0300 SHRA FG VV001 BECMG 2715/2717 0300 FG OVC002 BECMG 2717/2719 31003G08MPS TEMPO 2717/2806 0800 PRFG VV001
NOTAMshow/hide NOTAM
AWOS   TABLE

Информация о ВПП

ВПП Длина ВПП (м.) Покрытие Курс ВПП Частота ILS
063350Асфальтобетон60110.3
243350Асфальтобетон240109.5

Диспетчерские позиции

Позывной Наименование органа УВД Частота
UMKK_TWRКалининград-Вышка127.2
UMKK_APPКалининград-Подход126.0



Спутниковое изображение